createdAt,value
2022-07-30T00:02:11.993Z,18.73
2022-07-30T00:04:40.001Z,18.73
2022-07-30T00:07:08.335Z,18.72
2022-07-30T00:09:36.414Z,18.65
2022-07-30T00:12:05.304Z,18.57
2022-07-30T00:14:34.931Z,18.43
2022-07-30T00:17:03.814Z,18.49
2022-07-30T00:19:33.587Z,18.50
2022-07-30T00:22:01.676Z,18.46
2022-07-30T00:24:29.585Z,18.45
2022-07-30T00:26:57.593Z,18.35
2022-07-30T00:29:26.619Z,18.37
2022-07-30T00:31:56.462Z,18.39
2022-07-30T00:34:24.371Z,18.38
2022-07-30T00:36:54.201Z,18.16
2022-07-30T00:39:22.199Z,18.32
2022-07-30T00:41:58.456Z,18.32
2022-07-30T00:44:27.385Z,18.28
2022-07-30T00:46:55.788Z,18.26
2022-07-30T00:49:24.535Z,18.24
2022-07-30T00:51:54.060Z,18.27
2022-07-30T00:54:22.438Z,18.30
2022-07-30T00:56:50.854Z,18.26
2022-07-30T00:59:19.043Z,18.25
2022-07-30T01:01:47.085Z,18.24
2022-07-30T01:04:15.034Z,18.28
2022-07-30T01:06:43.032Z,18.24
2022-07-30T01:09:12.567Z,18.31
2022-07-30T01:11:42.597Z,18.25
2022-07-30T01:14:11.234Z,18.22
2022-07-30T01:16:41.699Z,18.21
2022-07-30T01:19:33.419Z,18.13
2022-07-30T01:22:07.921Z,18.11
2022-07-30T01:24:41.219Z,18.09
2022-07-30T01:27:13.644Z,18.11
2022-07-30T01:29:45.676Z,18.11
2022-07-30T01:32:15.591Z,18.12
2022-07-30T01:34:45.623Z,18.14
2022-07-30T01:37:16.203Z,18.22
2022-07-30T01:39:45.075Z,18.26
2022-07-30T01:42:14.886Z,18.23
2022-07-30T01:44:44.403Z,18.25
2022-07-30T01:47:14.300Z,18.26
2022-07-30T01:49:43.256Z,18.25
2022-07-30T01:52:11.984Z,18.25
2022-07-30T01:54:41.592Z,18.28
2022-07-30T01:57:10.843Z,18.28
2022-07-30T01:59:42.395Z,18.28
2022-07-30T02:02:10.395Z,18.27
2022-07-30T02:04:38.618Z,18.26
2022-07-30T02:07:14.806Z,18.27
2022-07-30T02:09:51.051Z,18.19
2022-07-30T02:12:32.337Z,18.30
2022-07-30T02:15:18.769Z,18.32
2022-07-30T02:17:57.627Z,18.31
2022-07-30T02:20:29.355Z,18.34
2022-07-30T02:23:07.122Z,18.34
2022-07-30T02:25:37.004Z,18.34
2022-07-30T02:28:09.273Z,18.29
2022-07-30T02:30:52.668Z,18.28
2022-07-30T02:33:24.888Z,18.27
2022-07-30T02:35:56.829Z,18.29
2022-07-30T02:38:27.906Z,18.27
2022-07-30T02:40:58.821Z,18.30
2022-07-30T02:43:35.441Z,18.32
2022-07-30T02:46:13.267Z,18.34
2022-07-30T02:49:06.429Z,18.34
2022-07-30T02:51:36.723Z,18.30
2022-07-30T02:54:06.351Z,18.35
2022-07-30T02:56:36.483Z,18.37
2022-07-30T02:59:08.201Z,18.39
2022-07-30T03:01:46.281Z,18.37
2022-07-30T03:04:14.995Z,18.32
2022-07-30T03:06:46.670Z,18.32
2022-07-30T03:09:21.620Z,18.28
2022-07-30T03:11:53.956Z,18.33
2022-07-30T03:14:34.301Z,18.34
2022-07-30T03:17:08.392Z,18.31
2022-07-30T03:19:40.848Z,18.34
2022-07-30T03:22:10.466Z,18.34
2022-07-30T03:24:42.049Z,18.33
2022-07-30T03:27:15.670Z,18.27
2022-07-30T03:29:45.889Z,18.17
2022-07-30T03:32:18.552Z,18.11
2022-07-30T03:34:47.765Z,18.05
2022-07-30T03:37:15.852Z,17.98
2022-07-30T03:39:46.058Z,18.00
2022-07-30T03:42:18.157Z,18.01
2022-07-30T03:44:46.765Z,17.96
2022-07-30T03:47:16.834Z,17.95
2022-07-30T03:49:52.727Z,17.95
2022-07-30T03:52:21.155Z,17.94
2022-07-30T03:54:49.670Z,17.95
2022-07-30T03:58:02.921Z,17.95
2022-07-30T04:00:33.694Z,17.92
2022-07-30T04:03:02.104Z,17.83
2022-07-30T04:05:44.643Z,17.89
2022-07-30T04:08:13.525Z,17.89
2022-07-30T04:10:47.434Z,17.88
2022-07-30T04:13:20.815Z,17.88
2022-07-30T04:16:05.024Z,17.91
2022-07-30T04:18:49.886Z,17.88
2022-07-30T04:21:21.775Z,17.86
2022-07-30T04:24:10.701Z,17.78
2022-07-30T04:26:40.509Z,17.62
2022-07-30T04:29:18.249Z,17.60
2022-07-30T04:31:47.760Z,17.59
2022-07-30T04:34:49.683Z,17.47
2022-07-30T04:37:25.309Z,17.58
2022-07-30T04:39:57.779Z,17.59
2022-07-30T04:42:33.050Z,17.52
2022-07-30T04:45:08.978Z,17.50
2022-07-30T04:48:00.073Z,17.54
2022-07-30T04:50:36.992Z,17.58
2022-07-30T04:53:12.388Z,17.61
2022-07-30T04:55:52.590Z,17.62
2022-07-30T04:58:23.925Z,17.60
2022-07-30T05:01:19.551Z,17.60
2022-07-30T05:03:50.129Z,17.61
2022-07-30T05:06:22.629Z,17.60
2022-07-30T05:09:09.929Z,17.62
2022-07-30T05:11:37.857Z,17.61
2022-07-30T05:14:31.175Z,17.59
2022-07-30T05:17:12.968Z,17.56
2022-07-30T05:19:43.964Z,17.56
2022-07-30T05:22:25.633Z,17.58
2022-07-30T05:24:56.868Z,17.54
2022-07-30T05:27:24.862Z,17.47
2022-07-30T05:29:53.093Z,17.51
2022-07-30T05:32:29.988Z,17.49
2022-07-30T05:34:59.893Z,17.45
2022-07-30T05:37:33.241Z,17.46
2022-07-30T05:40:03.731Z,17.45
2022-07-30T05:42:57.699Z,17.52
2022-07-30T05:45:27.955Z,17.51
2022-07-30T05:47:55.887Z,17.54
2022-07-30T05:50:24.379Z,17.52
2022-07-30T05:52:58.602Z,17.61
2022-07-30T05:56:25.306Z,17.70
2022-07-30T05:59:03.427Z,17.74
2022-07-30T06:02:06.849Z,17.77
2022-07-30T06:04:55.214Z,17.81
2022-07-30T06:07:24.263Z,17.82
2022-07-30T06:09:54.767Z,17.83
2022-07-30T06:12:26.568Z,17.77
2022-07-30T06:14:54.494Z,17.83
2022-07-30T06:17:27.923Z,17.89
2022-07-30T06:20:10.440Z,17.98
2022-07-30T06:22:50.443Z,18.09
2022-07-30T06:25:26.039Z,18.23
2022-07-30T06:28:36.482Z,18.35
2022-07-30T06:31:08.372Z,18.49
2022-07-30T06:33:39.589Z,18.61
2022-07-30T06:36:13.993Z,18.66
2022-07-30T06:39:57.126Z,18.88
2022-07-30T06:42:23.529Z,19.08
2022-07-30T06:45:16.640Z,19.29
2022-07-30T06:48:10.563Z,19.48
2022-07-30T06:50:46.485Z,19.63
2022-07-30T06:53:26.436Z,19.70
2022-07-30T06:56:26.575Z,19.86
2022-07-30T06:58:59.394Z,19.93
2022-07-30T07:01:49.491Z,20.08
2022-07-30T07:04:19.748Z,20.05
2022-07-30T07:06:47.883Z,20.01
2022-07-30T07:09:39.739Z,20.16
2022-07-30T07:12:36.708Z,20.56
2022-07-30T07:15:06.237Z,20.78
2022-07-30T07:17:38.667Z,20.88
2022-07-30T07:20:16.190Z,20.87
2022-07-30T07:22:50.415Z,20.88
2022-07-30T07:25:18.619Z,20.86
2022-07-30T07:28:11.234Z,20.97
2022-07-30T07:33:35.406Z,20.88
2022-07-30T07:36:12.376Z,20.71
2022-07-30T07:38:40.367Z,20.68
2022-07-30T07:43:53.616Z,20.79
2022-07-30T07:46:33.827Z,20.86
2022-07-30T07:49:09.002Z,20.93
2022-07-30T07:51:49.344Z,20.89
2022-07-30T07:54:34.649Z,20.97
2022-07-30T07:57:07.838Z,21.14
2022-07-30T07:59:45.134Z,21.46
2022-07-30T08:02:19.628Z,21.69
2022-07-30T08:05:20.161Z,21.82
2022-07-30T08:11:22.431Z,22.15
2022-07-30T08:18:02.407Z,22.49
2022-07-30T08:20:58.504Z,22.61
2022-07-30T08:23:32.645Z,22.74
2022-07-30T08:26:03.550Z,22.74
2022-07-30T08:28:36.156Z,22.82
2022-07-30T08:31:06.256Z,22.76
2022-07-30T08:33:48.601Z,22.80
2022-07-30T08:36:24.168Z,22.91
2022-07-30T08:38:55.213Z,23.03
2022-07-30T08:41:55.048Z,23.36
2022-07-30T08:44:24.340Z,23.54
2022-07-30T08:46:56.297Z,23.66
2022-07-30T08:49:46.738Z,23.63
2022-07-30T08:52:16.978Z,23.69
2022-07-30T08:55:02.195Z,23.92
2022-07-30T08:57:32.448Z,24.08
2022-07-30T09:00:15.053Z,24.00
2022-07-30T09:02:42.964Z,24.03
2022-07-30T09:05:11.855Z,23.96
2022-07-30T09:07:42.500Z,23.76
2022-07-30T09:10:24.850Z,23.59
2022-07-30T09:12:53.999Z,23.28
2022-07-30T09:15:23.570Z,22.95
2022-07-30T09:17:57.039Z,22.77
2022-07-30T09:20:32.083Z,22.74
2022-07-30T09:23:09.072Z,22.78
2022-07-30T09:26:02.309Z,22.81
2022-07-30T09:28:45.662Z,23.13
2022-07-30T09:31:17.545Z,23.30
2022-07-30T09:34:25.932Z,23.43
2022-07-30T09:37:19.254Z,23.63
2022-07-30T09:40:46.205Z,23.91
2022-07-30T09:43:33.268Z,23.97
2022-07-30T09:46:25.048Z,23.99
2022-07-30T09:49:14.782Z,24.03
2022-07-30T09:51:57.484Z,23.98
2022-07-30T09:54:53.555Z,23.99
2022-07-30T09:57:29.208Z,24.01
2022-07-30T10:00:23.664Z,24.08
2022-07-30T10:03:41.765Z,24.17
2022-07-30T10:06:43.682Z,24.38
2022-07-30T10:09:28.321Z,24.55
2022-07-30T10:11:57.517Z,24.64
2022-07-30T10:14:32.554Z,24.65
2022-07-30T10:17:03.195Z,24.64
2022-07-30T10:19:39.811Z,24.59
2022-07-30T10:22:29.412Z,24.50
2022-07-30T10:25:23.180Z,24.62
2022-07-30T10:28:23.016Z,24.55
2022-07-30T10:30:55.737Z,24.43
2022-07-30T10:33:34.584Z,24.27
2022-07-30T10:39:02.618Z,24.27
2022-07-30T10:41:48.197Z,24.25
2022-07-30T10:45:05.227Z,24.32
2022-07-30T10:47:56.329Z,24.47
2022-07-30T10:50:26.899Z,24.65
2022-07-30T10:52:57.614Z,24.77
2022-07-30T10:55:37.404Z,24.83
2022-07-30T10:58:23.106Z,24.90
2022-07-30T11:00:59.947Z,25.01
2022-07-30T11:03:44.561Z,25.22
2022-07-30T11:06:28.036Z,25.42
2022-07-30T11:09:43.699Z,25.49
2022-07-30T11:16:02.952Z,25.30
2022-07-30T11:22:25.356Z,25.52
2022-07-30T11:24:54.262Z,25.58
2022-07-30T11:27:45.483Z,25.36
2022-07-30T11:30:35.287Z,25.40
2022-07-30T11:33:33.176Z,25.43
2022-07-30T11:36:29.347Z,25.29
2022-07-30T11:39:06.787Z,25.24
2022-07-30T11:41:42.856Z,25.18
2022-07-30T11:44:28.585Z,25.00
2022-07-30T11:46:57.258Z,25.02
2022-07-30T11:49:39.617Z,24.79
2022-07-30T11:52:12.043Z,24.67
2022-07-30T11:54:53.242Z,24.84
2022-07-30T11:57:43.215Z,25.30
2022-07-30T12:00:13.410Z,25.07
2022-07-30T12:02:44.266Z,24.76
2022-07-30T12:05:14.872Z,24.72
2022-07-30T12:07:59.181Z,24.81
2022-07-30T12:10:31.727Z,25.21
2022-07-30T12:13:24.086Z,25.49
2022-07-30T12:16:13.581Z,25.47
2022-07-30T12:18:48.678Z,25.19
2022-07-30T12:21:22.777Z,25.22
2022-07-30T12:24:00.534Z,25.49
2022-07-30T12:26:32.578Z,25.66
2022-07-30T12:29:03.258Z,25.86
2022-07-30T12:34:37.846Z,25.93
2022-07-30T12:37:11.406Z,26.23
2022-07-30T12:39:50.389Z,26.43
2022-07-30T12:42:21.069Z,26.61
2022-07-30T12:44:50.220Z,26.70
2022-07-30T12:47:23.926Z,26.88
2022-07-30T12:49:53.312Z,26.97
2022-07-30T12:52:27.630Z,27.02
2022-07-30T12:55:07.107Z,26.82
2022-07-30T12:57:55.020Z,26.55
2022-07-30T13:00:23.770Z,26.60
2022-07-30T13:02:51.778Z,26.90
2022-07-30T13:05:22.187Z,27.16
2022-07-30T13:08:06.007Z,27.37
2022-07-30T13:10:35.261Z,27.40
2022-07-30T13:13:03.422Z,27.41
2022-07-30T13:15:31.532Z,27.40
2022-07-30T13:18:06.930Z,27.31
2022-07-30T13:20:35.164Z,27.19
2022-07-30T13:23:11.534Z,27.12
2022-07-30T13:26:06.473Z,26.79
2022-07-30T13:31:42.414Z,26.45
2022-07-30T13:34:11.456Z,26.69
2022-07-30T13:36:39.423Z,26.72
2022-07-30T13:39:13.203Z,26.92
2022-07-30T13:41:45.101Z,26.76
2022-07-30T13:44:15.276Z,26.50
2022-07-30T13:46:43.963Z,26.33
2022-07-30T13:49:14.664Z,26.54
2022-07-30T13:51:44.080Z,26.56
2022-07-30T13:54:13.860Z,26.60
2022-07-30T13:56:45.707Z,26.67
2022-07-30T13:59:13.697Z,26.69
2022-07-30T14:01:42.566Z,26.47
2022-07-30T14:04:13.416Z,26.59
2022-07-30T14:06:44.145Z,26.72
2022-07-30T14:09:46.904Z,26.60
2022-07-30T14:12:17.370Z,26.72
2022-07-30T14:14:47.861Z,26.90
2022-07-30T14:17:16.196Z,27.04
2022-07-30T14:19:44.258Z,26.80
2022-07-30T14:22:14.276Z,26.62
2022-07-30T14:24:45.472Z,26.67
2022-07-30T14:27:25.072Z,26.60
2022-07-30T14:29:57.006Z,26.57
2022-07-30T14:32:27.780Z,26.72
2022-07-30T14:34:57.884Z,26.77
2022-07-30T14:37:28.649Z,26.72
2022-07-30T14:40:04.049Z,26.57
2022-07-30T14:42:31.973Z,26.55
2022-07-30T14:45:01.489Z,26.55
2022-07-30T14:47:43.195Z,26.48
2022-07-30T14:50:13.482Z,26.67
2022-07-30T14:52:41.672Z,26.60
2022-07-30T14:55:18.967Z,26.40
2022-07-30T14:57:46.930Z,26.23
2022-07-30T15:00:21.681Z,26.16
2022-07-30T15:02:58.312Z,26.11
2022-07-30T15:05:29.032Z,25.99
2022-07-30T15:07:59.132Z,25.95
2022-07-30T15:10:34.727Z,25.88
2022-07-30T15:13:06.155Z,25.79
2022-07-30T15:15:46.128Z,25.75
2022-07-30T15:18:24.804Z,25.71
2022-07-30T15:20:55.982Z,25.66
2022-07-30T15:23:26.797Z,25.64
2022-07-30T15:26:00.134Z,25.66
2022-07-30T15:28:28.990Z,25.59
2022-07-30T15:31:01.151Z,25.49
2022-07-30T15:33:29.069Z,25.52
2022-07-30T15:35:59.696Z,25.57
2022-07-30T15:38:28.285Z,25.56
2022-07-30T15:40:59.362Z,25.51
2022-07-30T15:43:33.469Z,25.45
2022-07-30T15:46:06.049Z,25.37
2022-07-30T15:51:23.487Z,25.19
2022-07-30T15:53:51.473Z,25.17
2022-07-30T15:56:21.825Z,25.17
2022-07-30T15:58:49.821Z,25.17
2022-07-30T16:01:19.323Z,25.21
2022-07-30T16:03:47.263Z,25.32
2022-07-30T16:06:17.325Z,25.46
2022-07-30T16:08:49.578Z,25.63
2022-07-30T16:11:17.526Z,25.76
2022-07-30T16:13:46.116Z,25.93
2022-07-30T16:16:34.004Z,26.05
2022-07-30T16:19:02.053Z,26.04
2022-07-30T16:21:29.988Z,26.01
2022-07-30T16:24:12.097Z,26.13
2022-07-30T16:26:47.019Z,26.12
2022-07-30T16:29:21.141Z,26.14
2022-07-30T16:31:54.074Z,26.23
2022-07-30T16:34:41.674Z,26.15
2022-07-30T16:37:12.109Z,26.01
2022-07-30T16:39:48.796Z,25.98
2022-07-30T16:42:31.300Z,25.99
2022-07-30T16:45:00.220Z,26.01
2022-07-30T16:47:34.414Z,25.92
2022-07-30T16:50:07.829Z,25.83
2022-07-30T16:52:42.011Z,25.81
2022-07-30T16:55:12.907Z,25.84
2022-07-30T16:57:43.851Z,25.76
2022-07-30T17:00:13.364Z,25.64
2022-07-30T17:02:53.493Z,25.64
2022-07-30T17:05:23.029Z,25.54
2022-07-30T17:07:51.166Z,25.45
2022-07-30T17:10:25.529Z,25.39
2022-07-30T17:12:57.357Z,25.32
2022-07-30T17:15:32.659Z,25.29
2022-07-30T17:18:17.542Z,25.24
2022-07-30T17:20:46.753Z,25.16
2022-07-30T17:23:14.716Z,25.13
2022-07-30T17:25:47.200Z,25.14
2022-07-30T17:28:15.166Z,25.16
2022-07-30T17:30:43.360Z,25.16
2022-07-30T17:33:12.147Z,25.17
2022-07-30T17:35:59.180Z,25.16
2022-07-30T17:38:28.597Z,25.12
2022-07-30T17:40:56.871Z,25.03
2022-07-30T17:43:24.670Z,25.11
2022-07-30T17:45:52.764Z,25.07
2022-07-30T17:48:21.907Z,25.07
2022-07-30T17:50:50.182Z,25.00
2022-07-30T17:53:25.562Z,24.93
2022-07-30T17:55:57.473Z,24.86
2022-07-30T17:58:26.800Z,24.81
2022-07-30T18:01:02.799Z,24.74
2022-07-30T18:03:38.408Z,24.69
2022-07-30T18:06:15.237Z,24.65
2022-07-30T18:08:54.398Z,24.60
2022-07-30T18:11:24.203Z,24.57
2022-07-30T18:14:01.333Z,24.53
2022-07-30T18:16:29.322Z,24.49
2022-07-30T18:18:57.260Z,24.44
2022-07-30T18:21:40.529Z,24.38
2022-07-30T18:24:10.665Z,24.32
2022-07-30T18:29:27.243Z,24.30
2022-07-30T18:32:21.293Z,24.31
2022-07-30T18:34:52.780Z,24.29
2022-07-30T18:37:23.376Z,24.24
2022-07-30T18:39:55.271Z,24.11
2022-07-30T18:42:25.177Z,23.99
2022-07-30T18:44:56.007Z,23.82
2022-07-30T18:47:33.113Z,23.66
2022-07-30T18:50:05.859Z,23.50
2022-07-30T18:52:35.371Z,23.36
2022-07-30T18:55:17.202Z,23.18
2022-07-30T18:57:45.770Z,23.23
2022-07-30T19:00:34.497Z,23.18
2022-07-30T19:03:05.930Z,23.05
2022-07-30T19:05:36.637Z,22.88
2022-07-30T19:08:29.550Z,22.62
2022-07-30T19:11:04.644Z,22.40
2022-07-30T19:13:34.721Z,22.12
2022-07-30T19:16:12.942Z,21.81
2022-07-30T19:18:48.618Z,21.27
2022-07-30T19:21:17.181Z,20.66
2022-07-30T19:23:47.288Z,20.52
2022-07-30T19:26:16.827Z,20.42
2022-07-30T19:28:49.566Z,20.34
2022-07-30T19:31:17.479Z,20.34
2022-07-30T19:34:11.781Z,20.33
2022-07-30T19:36:39.982Z,20.30
2022-07-30T19:39:11.036Z,20.22
2022-07-30T19:41:53.985Z,20.23
2022-07-30T19:44:21.940Z,20.25
2022-07-30T19:46:53.179Z,20.24
2022-07-30T19:49:23.869Z,20.30
2022-07-30T19:52:10.647Z,20.35
2022-07-30T19:54:48.040Z,20.31
2022-07-30T19:57:20.690Z,20.34
2022-07-30T20:00:00.132Z,20.42
2022-07-30T20:02:40.713Z,20.56
2022-07-30T20:05:11.685Z,20.64
2022-07-30T20:07:44.547Z,20.65
2022-07-30T20:10:12.818Z,20.64
2022-07-30T20:12:42.686Z,20.66
2022-07-30T20:15:20.397Z,20.69
2022-07-30T20:18:16.326Z,20.71
2022-07-30T20:20:57.674Z,20.77
2022-07-30T20:23:31.810Z,20.79
2022-07-30T20:26:04.443Z,20.80
2022-07-30T20:28:42.100Z,20.84
2022-07-30T20:31:17.441Z,20.88
2022-07-30T20:34:19.190Z,20.85
2022-07-30T20:36:48.522Z,20.82
2022-07-30T20:39:19.901Z,20.83
2022-07-30T20:42:08.609Z,20.02
2022-07-30T20:44:39.806Z,20.75
2022-07-30T20:47:12.765Z,20.68
2022-07-30T20:49:42.019Z,20.68
2022-07-30T20:52:10.882Z,20.62
2022-07-30T20:57:44.395Z,20.52
2022-07-30T21:00:18.723Z,20.50
2022-07-30T21:02:48.623Z,20.46
2022-07-30T21:05:20.061Z,20.43
2022-07-30T21:07:48.297Z,20.42
2022-07-30T21:10:21.674Z,20.37
2022-07-30T21:12:53.152Z,20.33
2022-07-30T21:15:27.917Z,20.28
2022-07-30T21:18:01.823Z,20.24
2022-07-30T21:20:30.349Z,20.13
2022-07-30T21:23:04.467Z,20.11
2022-07-30T21:25:33.628Z,20.09
2022-07-30T21:28:02.841Z,20.00
2022-07-30T21:30:33.003Z,19.99
2022-07-30T21:33:01.018Z,19.88
2022-07-30T21:35:32.239Z,19.82
2022-07-30T21:38:00.515Z,19.76
2022-07-30T21:40:29.418Z,19.67
2022-07-30T21:42:57.408Z,19.60
2022-07-30T21:45:26.949Z,19.50
2022-07-30T21:48:09.382Z,19.39
2022-07-30T21:50:39.915Z,19.34
2022-07-30T21:53:08.576Z,19.31
2022-07-30T21:55:52.879Z,19.26
2022-07-30T21:58:26.505Z,19.20
2022-07-30T22:01:17.545Z,19.19
2022-07-30T22:04:03.874Z,19.17
2022-07-30T22:06:38.279Z,19.12
2022-07-30T22:09:18.654Z,19.11
2022-07-30T22:11:54.875Z,19.06
2022-07-30T22:14:25.503Z,19.09
2022-07-30T22:16:53.991Z,19.06
2022-07-30T22:19:25.793Z,19.06
2022-07-30T22:21:54.159Z,19.05
2022-07-30T22:24:29.489Z,19.02
2022-07-30T22:26:59.826Z,18.91
2022-07-30T22:29:34.352Z,18.89
2022-07-30T22:32:06.482Z,18.86
2022-07-30T22:34:37.393Z,18.84
2022-07-30T22:37:12.581Z,18.80
2022-07-30T22:39:50.942Z,18.80
2022-07-30T22:42:24.024Z,18.80
2022-07-30T22:44:53.145Z,18.80
2022-07-30T22:47:50.933Z,18.83
2022-07-30T22:50:14.879Z,18.85
2022-07-30T22:52:55.102Z,18.93
2022-07-30T22:55:27.981Z,18.96
2022-07-30T22:57:57.768Z,18.95
2022-07-30T23:00:27.993Z,19.01
2022-07-30T23:02:57.459Z,18.88
2022-07-30T23:05:27.692Z,19.03
2022-07-30T23:07:55.871Z,19.06
2022-07-30T23:10:25.413Z,19.04
2022-07-30T23:12:29.331Z,20.60
2022-07-30T23:12:56.254Z,19.01
2022-07-30T23:15:24.514Z,18.98
2022-07-30T23:17:53.309Z,18.99
2022-07-30T23:20:22.072Z,18.94
2022-07-30T23:22:51.883Z,18.90
2022-07-30T23:25:19.771Z,18.88
2022-07-30T23:27:47.725Z,18.81
2022-07-30T23:30:15.812Z,18.72
2022-07-30T23:35:12.092Z,18.78
2022-07-30T23:37:49.164Z,18.76
2022-07-30T23:40:19.466Z,18.76
2022-07-30T23:42:50.102Z,18.73
2022-07-30T23:45:18.430Z,18.71
2022-07-30T23:47:51.160Z,18.81
2022-07-30T23:50:30.730Z,18.77
2022-07-30T23:52:58.879Z,18.78
2022-07-30T23:55:29.201Z,18.77
2022-07-30T23:57:58.323Z,18.76
